Aérodrome :
LOGIN :

S'inscrire | Disclaimer

   EN    FR    IT 

 










Légende :    VFR   VFR Marginal   IFR   IFR Intensif   IFR Très Intensif
Visi : 
Plafond : 
>= 8 km
>= 3000ft
5 à 8 km
1000 à 3000 ft
1500m à 5 km
500 à 1000 ft
800 à 1500m
200 à 500 ft
< 800m
< 200 ft
Symboles :   Orages  Brouillard  Fortes neiges  Fortes précipitations  Vent > 20 kt
SIGMETs :   Divers  Orages  Givrage  Turbulence  Onde Orograph.  Cendres Volcan.







- Altitude de l'aérodrome : 32 ft
- Code IATA : LKZ


EGUL - RAF Lakenheath

DERNIER METAR :
  • 190056Z AUTO 00000KT 9999 SCT055 05/03 A3022 RMK AO2 SLP237 T00480025 $

METARs EXPIRÉS :
  • 182356Z AUTO 19003KT 9999 SCT060 05/02 A3022 RMK AO2 SLP237 60000 T00490023 10087 20041 401180015 52005 $
  • 182256Z AUTO 19004KT 9999 OVC060 06/03 A3021 RMK AO2 SLP234 T00550025 $

TAF TAF EGUL
Valide du 18 à 20h jusqu'au 20 à 02h UTC


182005Z 1820/2002 24006KT 9999 BKN040 620406 QNH3016INS
BECMG 1823/1824 24006KT 6000 BR BKN020 620406 QNH3019INS
BECMG 1902/1903 22006KT 6000 BR BKN015 OVC030 620307 QNH3021INS
TEMPO 1903/1907 3200 BR BKN010
BECMG 1909/1910 23006KT 9999 NSW BKN015 620307 QNH3025INS TX13/1915Z TN03/1903Z
Pas de NOTAMs connus pour ce terrain.



MET'MAP, la Météo Aéronautique d'un coup d'oeil ! - Copyright ORBIFLY Décembre 2007 - Disclaimer

ORBIFLY MET'MAP TEAM :

Programmation & Développement : Alexandra Zaïnal
Conception & Développement : Baudouin d'Aumeries
Co-Programmation & Développement : Marc-Olivier Méhu
Soutien technique & logistique : Manuel Goepfert

Contact : metmap@orbifly.com




SOURCES & CREDITS :

   NOAA